sensor_id;sensor_type;location;lat;lon;timestamp;P1;durP1;ratioP1;P2;durP2;ratioP2
58412;SDS011;44209;52.952;6.790;2023-04-04T00:00:29;6.90;;;4.17;;
58412;SDS011;44209;52.952;6.790;2023-04-04T00:02:55;7.80;;;4.30;;
58412;SDS011;44209;52.952;6.790;2023-04-04T00:05:21;7.87;;;4.90;;
58412;SDS011;44209;52.952;6.790;2023-04-04T00:07:47;7.67;;;4.33;;
58412;SDS011;44209;52.952;6.790;2023-04-04T00:10:13;6.77;;;4.10;;
58412;SDS011;44209;52.952;6.790;2023-04-04T00:12:39;8.13;;;4.80;;
58412;SDS011;44209;52.952;6.790;2023-04-04T00:15:06;9.33;;;4.30;;
58412;SDS011;44209;52.952;6.790;2023-04-04T00:17:32;6.37;;;4.20;;
58412;SDS011;44209;52.952;6.790;2023-04-04T00:19:57;7.47;;;4.27;;
58412;SDS011;44209;52.952;6.790;2023-04-04T00:22:23;8.60;;;4.60;;
58412;SDS011;44209;52.952;6.790;2023-04-04T00:24:49;8.53;;;4.67;;
58412;SDS011;44209;52.952;6.790;2023-04-04T00:27:15;6.23;;;4.30;;
58412;SDS011;44209;52.952;6.790;2023-04-04T00:29:41;7.93;;;4.13;;
58412;SDS011;44209;52.952;6.790;2023-04-04T00:32:06;8.57;;;4.50;;
58412;SDS011;44209;52.952;6.790;2023-04-04T00:34:32;5.93;;;4.37;;
58412;SDS011;44209;52.952;6.790;2023-04-04T00:37:00;8.23;;;4.63;;
58412;SDS011;44209;52.952;6.790;2023-04-04T00:39:26;7.50;;;4.80;;
58412;SDS011;44209;52.952;6.790;2023-04-04T00:41:52;7.97;;;5.10;;
58412;SDS011;44209;52.952;6.790;2023-04-04T00:44:18;8.30;;;4.63;;
58412;SDS011;44209;52.952;6.790;2023-04-04T00:46:43;7.97;;;4.60;;
58412;SDS011;44209;52.952;6.790;2023-04-04T00:49:09;6.63;;;4.73;;
58412;SDS011;44209;52.952;6.790;2023-04-04T00:51:35;7.67;;;5.07;;
58412;SDS011;44209;52.952;6.790;2023-04-04T00:54:01;7.90;;;5.27;;
58412;SDS011;44209;52.952;6.790;2023-04-04T00:56:28;9.77;;;5.90;;
58412;SDS011;44209;52.952;6.790;2023-04-04T00:58:57;12.77;;;6.30;;
58412;SDS011;44209;52.952;6.790;2023-04-04T01:01:22;8.13;;;5.53;;
58412;SDS011;44209;52.952;6.790;2023-04-04T01:03:51;8.77;;;5.30;;
58412;SDS011;44209;52.952;6.790;2023-04-04T01:06:17;9.47;;;5.40;;
58412;SDS011;44209;52.952;6.790;2023-04-04T01:08:42;9.10;;;5.60;;
58412;SDS011;44209;52.952;6.790;2023-04-04T01:11:09;8.60;;;5.67;;
58412;SDS011;44209;52.952;6.790;2023-04-04T01:13:35;10.27;;;6.20;;
58412;SDS011;44209;52.952;6.790;2023-04-04T01:16:01;8.33;;;6.57;;
58412;SDS011;44209;52.952;6.790;2023-04-04T01:18:26;7.43;;;6.03;;
58412;SDS011;44209;52.952;6.790;2023-04-04T01:20:57;9.17;;;5.70;;
58412;SDS011;44209;52.952;6.790;2023-04-04T01:23:45;6.63;;;5.30;;
58412;SDS011;44209;52.952;6.790;2023-04-04T01:26:25;7.20;;;5.23;;
58412;SDS011;44209;52.952;6.790;2023-04-04T01:28:52;8.80;;;6.03;;
58412;SDS011;44209;52.952;6.790;2023-04-04T01:31:25;8.40;;;5.73;;
58412;SDS011;44209;52.952;6.790;2023-04-04T01:34:16;7.03;;;5.23;;
58412;SDS011;44209;52.952;6.790;2023-04-04T01:37:08;9.60;;;5.50;;
58412;SDS011;44209;52.952;6.790;2023-04-04T01:39:49;9.40;;;5.77;;
58412;SDS011;44209;52.952;6.790;2023-04-04T01:42:18;9.27;;;5.90;;
58412;SDS011;44209;52.952;6.790;2023-04-04T01:44:44;9.33;;;5.57;;
58412;SDS011;44209;52.952;6.790;2023-04-04T01:47:13;10.50;;;5.83;;
58412;SDS011;44209;52.952;6.790;2023-04-04T01:49:39;7.10;;;5.70;;
58412;SDS011;44209;52.952;6.790;2023-04-04T01:52:05;10.13;;;5.60;;
58412;SDS011;44209;52.952;6.790;2023-04-04T01:54:31;11.30;;;6.27;;
58412;SDS011;44209;52.952;6.790;2023-04-04T01:56:58;11.27;;;5.87;;
58412;SDS011;44209;52.952;6.790;2023-04-04T01:59:23;9.70;;;5.50;;
58412;SDS011;44209;52.952;6.790;2023-04-04T02:01:49;8.27;;;5.57;;
58412;SDS011;44209;52.952;6.790;2023-04-04T02:04:15;10.77;;;5.77;;
58412;SDS011;44209;52.952;6.790;2023-04-04T02:06:41;9.53;;;6.33;;
58412;SDS011;44209;52.952;6.790;2023-04-04T02:09:06;11.80;;;5.90;;
58412;SDS011;44209;52.952;6.790;2023-04-04T02:11:32;8.90;;;5.80;;
58412;SDS011;44209;52.952;6.790;2023-04-04T02:13:58;7.80;;;5.93;;
58412;SDS011;44209;52.952;6.790;2023-04-04T02:16:24;8.57;;;5.50;;
58412;SDS011;44209;52.952;6.790;2023-04-04T02:18:49;8.83;;;5.97;;
58412;SDS011;44209;52.952;6.790;2023-04-04T02:21:15;10.57;;;6.10;;
58412;SDS011;44209;52.952;6.790;2023-04-04T02:23:41;10.00;;;6.00;;
58412;SDS011;44209;52.952;6.790;2023-04-04T02:26:06;11.20;;;6.67;;
58412;SDS011;44209;52.952;6.790;2023-04-04T02:28:32;8.60;;;6.63;;
58412;SDS011;44209;52.952;6.790;2023-04-04T02:31:01;10.20;;;6.33;;
58412;SDS011;44209;52.952;6.790;2023-04-04T02:33:27;8.33;;;6.27;;
58412;SDS011;44209;52.952;6.790;2023-04-04T02:35:57;9.63;;;6.03;;
58412;SDS011;44209;52.952;6.790;2023-04-04T02:38:23;7.77;;;6.03;;
58412;SDS011;44209;52.952;6.790;2023-04-04T02:40:50;9.97;;;6.60;;
58412;SDS011;44209;52.952;6.790;2023-04-04T02:43:16;10.17;;;5.93;;
58412;SDS011;44209;52.952;6.790;2023-04-04T02:45:42;8.57;;;5.97;;
58412;SDS011;44209;52.952;6.790;2023-04-04T02:48:07;10.43;;;5.97;;
58412;SDS011;44209;52.952;6.790;2023-04-04T02:50:35;9.30;;;6.67;;
58412;SDS011;44209;52.952;6.790;2023-04-04T02:53:04;7.93;;;6.20;;
58412;SDS011;44209;52.952;6.790;2023-04-04T02:55:29;9.83;;;6.30;;
58412;SDS011;44209;52.952;6.790;2023-04-04T02:57:55;10.07;;;6.30;;
58412;SDS011;44209;52.952;6.790;2023-04-04T03:00:22;8.60;;;6.13;;
58412;SDS011;44209;52.952;6.790;2023-04-04T03:02:54;10.03;;;6.30;;
58412;SDS011;44209;52.952;6.790;2023-04-04T03:05:20;11.00;;;6.60;;
58412;SDS011;44209;52.952;6.790;2023-04-04T03:07:51;9.33;;;6.53;;
58412;SDS011;44209;52.952;6.790;2023-04-04T03:10:24;11.02;;;6.28;;
58412;SDS011;44209;52.952;6.790;2023-04-04T03:12:51;10.00;;;6.23;;
58412;SDS011;44209;52.952;6.790;2023-04-04T03:15:17;9.87;;;6.17;;
58412;SDS011;44209;52.952;6.790;2023-04-04T03:17:43;10.33;;;6.57;;
58412;SDS011;44209;52.952;6.790;2023-04-04T03:20:09;7.47;;;5.67;;
58412;SDS011;44209;52.952;6.790;2023-04-04T03:22:41;8.68;;;5.95;;
58412;SDS011;44209;52.952;6.790;2023-04-04T03:25:07;11.10;;;6.60;;
58412;SDS011;44209;52.952;6.790;2023-04-04T03:27:33;11.50;;;6.30;;
58412;SDS011;44209;52.952;6.790;2023-04-04T03:29:59;9.90;;;6.00;;
58412;SDS011;44209;52.952;6.790;2023-04-04T03:32:25;11.43;;;6.47;;
58412;SDS011;44209;52.952;6.790;2023-04-04T03:34:51;11.57;;;6.27;;
58412;SDS011;44209;52.952;6.790;2023-04-04T03:37:17;8.20;;;5.93;;
58412;SDS011;44209;52.952;6.790;2023-04-04T03:39:43;10.93;;;6.10;;
58412;SDS011;44209;52.952;6.790;2023-04-04T03:42:09;10.10;;;6.70;;
58412;SDS011;44209;52.952;6.790;2023-04-04T03:44:34;11.00;;;6.87;;
58412;SDS011;44209;52.952;6.790;2023-04-04T03:47:03;12.27;;;6.73;;
58412;SDS011;44209;52.952;6.790;2023-04-04T03:49:29;9.23;;;6.23;;
58412;SDS011;44209;52.952;6.790;2023-04-04T03:51:56;9.90;;;6.60;;
58412;SDS011;44209;52.952;6.790;2023-04-04T03:54:22;9.07;;;6.00;;
58412;SDS011;44209;52.952;6.790;2023-04-04T03:56:48;12.07;;;6.07;;
58412;SDS011;44209;52.952;6.790;2023-04-04T03:59:15;6.93;;;5.93;;
58412;SDS011;44209;52.952;6.790;2023-04-04T04:01:41;8.30;;;5.80;;
58412;SDS011;44209;52.952;6.790;2023-04-04T04:04:07;10.23;;;5.73;;
58412;SDS011;44209;52.952;6.790;2023-04-04T04:06:32;8.17;;;5.97;;
58412;SDS011;44209;52.952;6.790;2023-04-04T04:08:58;8.20;;;5.87;;
58412;SDS011;44209;52.952;6.790;2023-04-04T04:11:23;9.63;;;5.63;;
58412;SDS011;44209;52.952;6.790;2023-04-04T04:13:49;8.67;;;5.87;;
58412;SDS011;44209;52.952;6.790;2023-04-04T04:16:15;10.23;;;6.20;;
58412;SDS011;44209;52.952;6.790;2023-04-04T04:18:41;8.13;;;5.37;;
58412;SDS011;44209;52.952;6.790;2023-04-04T04:21:07;9.83;;;5.40;;
58412;SDS011;44209;52.952;6.790;2023-04-04T04:23:33;9.13;;;5.70;;
58412;SDS011;44209;52.952;6.790;2023-04-04T04:25:59;11.23;;;5.53;;
58412;SDS011;44209;52.952;6.790;2023-04-04T04:28:25;6.60;;;4.70;;
58412;SDS011;44209;52.952;6.790;2023-04-04T04:30:50;8.37;;;5.30;;
58412;SDS011;44209;52.952;6.790;2023-04-04T04:33:19;9.23;;;5.90;;
58412;SDS011;44209;52.952;6.790;2023-04-04T04:35:45;9.73;;;5.57;;
58412;SDS011;44209;52.952;6.790;2023-04-04T04:38:10;8.87;;;5.10;;
58412;SDS011;44209;52.952;6.790;2023-04-04T04:40:36;10.63;;;5.90;;
58412;SDS011;44209;52.952;6.790;2023-04-04T04:43:02;7.67;;;5.23;;
58412;SDS011;44209;52.952;6.790;2023-04-04T04:45:28;8.40;;;5.03;;
58412;SDS011;44209;52.952;6.790;2023-04-04T04:47:53;7.87;;;4.97;;
58412;SDS011;44209;52.952;6.790;2023-04-04T04:50:19;10.30;;;5.10;;
58412;SDS011;44209;52.952;6.790;2023-04-04T04:52:45;8.97;;;5.10;;
58412;SDS011;44209;52.952;6.790;2023-04-04T04:55:10;8.70;;;5.17;;
58412;SDS011;44209;52.952;6.790;2023-04-04T04:57:36;7.53;;;4.83;;
58412;SDS011;44209;52.952;6.790;2023-04-04T05:00:03;8.17;;;5.20;;
58412;SDS011;44209;52.952;6.790;2023-04-04T05:02:29;8.77;;;5.40;;
58412;SDS011;44209;52.952;6.790;2023-04-04T05:04:55;6.37;;;4.80;;
58412;SDS011;44209;52.952;6.790;2023-04-04T05:07:21;8.27;;;4.97;;
58412;SDS011;44209;52.952;6.790;2023-04-04T05:09:47;11.50;;;5.43;;
58412;SDS011;44209;52.952;6.790;2023-04-04T05:12:16;11.67;;;5.60;;
58412;SDS011;44209;52.952;6.790;2023-04-04T05:14:42;11.07;;;4.97;;
58412;SDS011;44209;52.952;6.790;2023-04-04T05:17:08;9.07;;;5.47;;
58412;SDS011;44209;52.952;6.790;2023-04-04T05:19:34;9.37;;;5.30;;
58412;SDS011;44209;52.952;6.790;2023-04-04T05:22:00;7.90;;;5.17;;
58412;SDS011;44209;52.952;6.790;2023-04-04T05:24:25;7.33;;;5.07;;
58412;SDS011;44209;52.952;6.790;2023-04-04T05:26:51;8.87;;;5.33;;
58412;SDS011;44209;52.952;6.790;2023-04-04T05:29:17;8.47;;;5.23;;
58412;SDS011;44209;52.952;6.790;2023-04-04T05:31:42;9.10;;;5.93;;
58412;SDS011;44209;52.952;6.790;2023-04-04T05:34:08;7.80;;;5.40;;
58412;SDS011;44209;52.952;6.790;2023-04-04T05:36:34;7.93;;;5.27;;
58412;SDS011;44209;52.952;6.790;2023-04-04T05:39:00;8.80;;;5.57;;
58412;SDS011;44209;52.952;6.790;2023-04-04T05:41:29;6.70;;;5.20;;
58412;SDS011;44209;52.952;6.790;2023-04-04T05:43:55;9.73;;;5.37;;
58412;SDS011;44209;52.952;6.790;2023-04-04T05:46:21;10.20;;;5.43;;
58412;SDS011;44209;52.952;6.790;2023-04-04T05:48:47;8.43;;;4.70;;
58412;SDS011;44209;52.952;6.790;2023-04-04T05:51:14;8.47;;;4.80;;
58412;SDS011;44209;52.952;6.790;2023-04-04T05:53:41;10.20;;;4.93;;
58412;SDS011;44209;52.952;6.790;2023-04-04T05:56:09;6.93;;;4.80;;
58412;SDS011;44209;52.952;6.790;2023-04-04T05:58:37;7.67;;;4.80;;
58412;SDS011;44209;52.952;6.790;2023-04-04T06:01:06;5.90;;;4.63;;
58412;SDS011;44209;52.952;6.790;2023-04-04T06:03:35;8.15;;;4.50;;
58412;SDS011;44209;52.952;6.790;2023-04-04T06:06:01;8.37;;;5.03;;
58412;SDS011;44209;52.952;6.790;2023-04-04T06:08:30;8.83;;;5.03;;
58412;SDS011;44209;52.952;6.790;2023-04-04T06:10:56;7.27;;;4.87;;
58412;SDS011;44209;52.952;6.790;2023-04-04T06:13:21;10.17;;;5.27;;
58412;SDS011;44209;52.952;6.790;2023-04-04T06:15:47;5.43;;;4.53;;
58412;SDS011;44209;52.952;6.790;2023-04-04T06:18:13;8.17;;;4.93;;
58412;SDS011;44209;52.952;6.790;2023-04-04T06:20:40;8.73;;;5.03;;
58412;SDS011;44209;52.952;6.790;2023-04-04T06:23:06;8.67;;;5.60;;
58412;SDS011;44209;52.952;6.790;2023-04-04T06:25:34;9.60;;;5.53;;
58412;SDS011;44209;52.952;6.790;2023-04-04T06:28:00;10.50;;;5.60;;
58412;SDS011;44209;52.952;6.790;2023-04-04T06:30:27;7.30;;;4.73;;
58412;SDS011;44209;52.952;6.790;2023-04-04T06:32:53;8.60;;;5.80;;
58412;SDS011;44209;52.952;6.790;2023-04-04T06:35:20;9.67;;;5.97;;
58412;SDS011;44209;52.952;6.790;2023-04-04T06:37:46;9.63;;;5.20;;
58412;SDS011;44209;52.952;6.790;2023-04-04T06:40:12;8.17;;;5.27;;
58412;SDS011;44209;52.952;6.790;2023-04-04T06:42:38;7.43;;;4.80;;
58412;SDS011;44209;52.952;6.790;2023-04-04T06:45:11;7.80;;;5.33;;
58412;SDS011;44209;52.952;6.790;2023-04-04T06:47:36;7.73;;;4.77;;
58412;SDS011;44209;52.952;6.790;2023-04-04T06:50:02;6.77;;;4.93;;
58412;SDS011;44209;52.952;6.790;2023-04-04T06:52:28;7.27;;;4.90;;
58412;SDS011;44209;52.952;6.790;2023-04-04T06:54:54;6.30;;;4.70;;
58412;SDS011;44209;52.952;6.790;2023-04-04T06:57:20;6.33;;;4.90;;
58412;SDS011;44209;52.952;6.790;2023-04-04T06:59:45;9.50;;;5.70;;
58412;SDS011;44209;52.952;6.790;2023-04-04T07:02:11;8.10;;;5.10;;
58412;SDS011;44209;52.952;6.790;2023-04-04T07:04:37;8.73;;;5.40;;
58412;SDS011;44209;52.952;6.790;2023-04-04T07:07:03;7.23;;;5.00;;
58412;SDS011;44209;52.952;6.790;2023-04-04T07:09:29;7.53;;;4.70;;
58412;SDS011;44209;52.952;6.790;2023-04-04T07:11:55;7.50;;;4.70;;
58412;SDS011;44209;52.952;6.790;2023-04-04T07:14:21;6.73;;;5.27;;
58412;SDS011;44209;52.952;6.790;2023-04-04T07:16:49;7.23;;;4.97;;
58412;SDS011;44209;52.952;6.790;2023-04-04T07:19:16;7.47;;;4.63;;
58412;SDS011;44209;52.952;6.790;2023-04-04T07:21:41;10.37;;;5.00;;
58412;SDS011;44209;52.952;6.790;2023-04-04T07:24:07;7.77;;;5.30;;
58412;SDS011;44209;52.952;6.790;2023-04-04T07:26:33;7.53;;;4.40;;
58412;SDS011;44209;52.952;6.790;2023-04-04T07:28:59;6.97;;;4.27;;
58412;SDS011;44209;52.952;6.790;2023-04-04T07:31:25;6.17;;;4.60;;
58412;SDS011;44209;52.952;6.790;2023-04-04T07:33:51;6.97;;;4.90;;
58412;SDS011;44209;52.952;6.790;2023-04-04T07:36:20;5.97;;;4.30;;
58412;SDS011;44209;52.952;6.790;2023-04-04T07:38:45;5.83;;;4.30;;
58412;SDS011;44209;52.952;6.790;2023-04-04T07:41:11;9.23;;;4.67;;
58412;SDS011;44209;52.952;6.790;2023-04-04T07:43:37;8.03;;;4.80;;
58412;SDS011;44209;52.952;6.790;2023-04-04T07:46:03;8.57;;;4.93;;
58412;SDS011;44209;52.952;6.790;2023-04-04T07:48:28;7.97;;;4.53;;
58412;SDS011;44209;52.952;6.790;2023-04-04T07:50:54;8.27;;;5.00;;
58412;SDS011;44209;52.952;6.790;2023-04-04T07:53:20;8.00;;;4.80;;
58412;SDS011;44209;52.952;6.790;2023-04-04T07:55:46;7.07;;;4.40;;
58412;SDS011;44209;52.952;6.790;2023-04-04T07:58:12;8.40;;;4.70;;
58412;SDS011;44209;52.952;6.790;2023-04-04T08:00:38;10.07;;;4.80;;
58412;SDS011;44209;52.952;6.790;2023-04-04T08:03:04;7.33;;;3.80;;
58412;SDS011;44209;52.952;6.790;2023-04-04T08:05:30;5.80;;;4.07;;
58412;SDS011;44209;52.952;6.790;2023-04-04T08:07:55;7.13;;;3.93;;
58412;SDS011;44209;52.952;6.790;2023-04-04T08:10:21;8.03;;;4.63;;
58412;SDS011;44209;52.952;6.790;2023-04-04T08:12:47;7.93;;;3.90;;
58412;SDS011;44209;52.952;6.790;2023-04-04T08:15:13;6.70;;;3.93;;
58412;SDS011;44209;52.952;6.790;2023-04-04T08:17:39;6.53;;;4.50;;
58412;SDS011;44209;52.952;6.790;2023-04-04T08:20:05;7.03;;;4.27;;
58412;SDS011;44209;52.952;6.790;2023-04-04T08:22:31;3.87;;;3.20;;
58412;SDS011;44209;52.952;6.790;2023-04-04T08:24:57;6.90;;;3.70;;
58412;SDS011;44209;52.952;6.790;2023-04-04T08:27:24;5.67;;;3.63;;
58412;SDS011;44209;52.952;6.790;2023-04-04T08:29:50;9.40;;;3.87;;
58412;SDS011;44209;52.952;6.790;2023-04-04T08:32:16;5.43;;;3.83;;
58412;SDS011;44209;52.952;6.790;2023-04-04T08:34:42;7.47;;;3.43;;
58412;SDS011;44209;52.952;6.790;2023-04-04T08:37:08;6.20;;;2.87;;
58412;SDS011;44209;52.952;6.790;2023-04-04T08:39:34;7.40;;;3.13;;
58412;SDS011;44209;52.952;6.790;2023-04-04T08:42:04;7.00;;;2.87;;
58412;SDS011;44209;52.952;6.790;2023-04-04T08:44:32;3.70;;;3.10;;
58412;SDS011;44209;52.952;6.790;2023-04-04T08:47:01;6.43;;;3.30;;
58412;SDS011;44209;52.952;6.790;2023-04-04T08:49:32;5.13;;;3.57;;
58412;SDS011;44209;52.952;6.790;2023-04-04T08:52:02;7.57;;;2.53;;
58412;SDS011;44209;52.952;6.790;2023-04-04T08:54:30;4.23;;;3.03;;
58412;SDS011;44209;52.952;6.790;2023-04-04T08:56:58;5.20;;;2.67;;
58412;SDS011;44209;52.952;6.790;2023-04-04T08:59:24;4.13;;;2.50;;
58412;SDS011;44209;52.952;6.790;2023-04-04T09:01:55;4.50;;;2.80;;
58412;SDS011;44209;52.952;6.790;2023-04-04T09:04:30;6.87;;;2.53;;
58412;SDS011;44209;52.952;6.790;2023-04-04T09:06:56;5.30;;;2.83;;
58412;SDS011;44209;52.952;6.790;2023-04-04T09:09:24;3.57;;;2.30;;
58412;SDS011;44209;52.952;6.790;2023-04-04T09:11:50;5.97;;;2.50;;
58412;SDS011;44209;52.952;6.790;2023-04-04T09:14:18;4.70;;;2.77;;
58412;SDS011;44209;52.952;6.790;2023-04-04T09:16:45;4.50;;;2.63;;
58412;SDS011;44209;52.952;6.790;2023-04-04T09:19:11;4.20;;;2.77;;
58412;SDS011;44209;52.952;6.790;2023-04-04T09:21:37;2.93;;;2.43;;
58412;SDS011;44209;52.952;6.790;2023-04-04T09:24:03;6.30;;;2.50;;
58412;SDS011;44209;52.952;6.790;2023-04-04T09:26:45;5.47;;;2.60;;
58412;SDS011;44209;52.952;6.790;2023-04-04T09:29:11;7.55;;;2.80;;
58412;SDS011;44209;52.952;6.790;2023-04-04T09:31:37;5.73;;;2.67;;
58412;SDS011;44209;52.952;6.790;2023-04-04T09:34:03;5.87;;;2.53;;
58412;SDS011;44209;52.952;6.790;2023-04-04T09:36:29;4.27;;;2.47;;
58412;SDS011;44209;52.952;6.790;2023-04-04T09:38:56;4.37;;;2.87;;
58412;SDS011;44209;52.952;6.790;2023-04-04T09:41:21;4.57;;;2.70;;
58412;SDS011;44209;52.952;6.790;2023-04-04T09:43:50;4.10;;;2.53;;
58412;SDS011;44209;52.952;6.790;2023-04-04T09:46:19;5.03;;;2.67;;
58412;SDS011;44209;52.952;6.790;2023-04-04T09:48:49;4.93;;;2.80;;
58412;SDS011;44209;52.952;6.790;2023-04-04T09:51:15;4.90;;;3.00;;
58412;SDS011;44209;52.952;6.790;2023-04-04T09:53:41;4.53;;;2.63;;
58412;SDS011;44209;52.952;6.790;2023-04-04T09:56:11;4.50;;;2.30;;
58412;SDS011;44209;52.952;6.790;2023-04-04T09:58:37;5.23;;;2.40;;
58412;SDS011;44209;52.952;6.790;2023-04-04T10:01:03;4.20;;;2.60;;
58412;SDS011;44209;52.952;6.790;2023-04-04T10:03:36;7.13;;;2.80;;
58412;SDS011;44209;52.952;6.790;2023-04-04T10:06:03;5.20;;;2.50;;
58412;SDS011;44209;52.952;6.790;2023-04-04T10:08:30;5.27;;;2.40;;
58412;SDS011;44209;52.952;6.790;2023-04-04T10:10:58;6.13;;;2.43;;
58412;SDS011;44209;52.952;6.790;2023-04-04T10:13:30;5.43;;;2.10;;
58412;SDS011;44209;52.952;6.790;2023-04-04T10:15:57;4.43;;;2.08;;
58412;SDS011;44209;52.952;6.790;2023-04-04T10:18:25;3.83;;;1.97;;
58412;SDS011;44209;52.952;6.790;2023-04-04T10:20:52;4.63;;;2.20;;
58412;SDS011;44209;52.952;6.790;2023-04-04T10:23:20;4.10;;;2.00;;
58412;SDS011;44209;52.952;6.790;2023-04-04T10:25:48;4.10;;;2.57;;
58412;SDS011;44209;52.952;6.790;2023-04-04T10:28:14;7.60;;;2.73;;
58412;SDS011;44209;52.952;6.790;2023-04-04T10:31:08;4.63;;;2.70;;
58412;SDS011;44209;52.952;6.790;2023-04-04T10:36:31;3.77;;;2.40;;
58412;SDS011;44209;52.952;6.790;2023-04-04T10:39:25;4.73;;;2.47;;
58412;SDS011;44209;52.952;6.790;2023-04-04T10:41:54;6.17;;;2.30;;
58412;SDS011;44209;52.952;6.790;2023-04-04T10:44:32;4.80;;;2.87;;
58412;SDS011;44209;52.952;6.790;2023-04-04T10:49:39;5.63;;;2.83;;
58412;SDS011;44209;52.952;6.790;2023-04-04T10:52:10;4.53;;;2.40;;
58412;SDS011;44209;52.952;6.790;2023-04-04T10:54:37;4.17;;;2.20;;
58412;SDS011;44209;52.952;6.790;2023-04-04T10:57:08;5.23;;;2.40;;
58412;SDS011;44209;52.952;6.790;2023-04-04T10:59:54;5.13;;;2.30;;
58412;SDS011;44209;52.952;6.790;2023-04-04T11:02:41;5.53;;;2.63;;
58412;SDS011;44209;52.952;6.790;2023-04-04T11:08:01;6.03;;;2.90;;
58412;SDS011;44209;52.952;6.790;2023-04-04T11:10:29;4.50;;;2.47;;
58412;SDS011;44209;52.952;6.790;2023-04-04T11:12:56;6.80;;;2.57;;
58412;SDS011;44209;52.952;6.790;2023-04-04T11:21:03;4.33;;;2.57;;
58412;SDS011;44209;52.952;6.790;2023-04-04T11:26:55;6.53;;;2.43;;
58412;SDS011;44209;52.952;6.790;2023-04-04T11:29:05;4.75;;;2.75;;
58412;SDS011;44209;52.952;6.790;2023-04-04T11:31:39;4.43;;;3.27;;
58412;SDS011;44209;52.952;6.790;2023-04-04T11:34:08;3.47;;;2.23;;
58412;SDS011;44209;52.952;6.790;2023-04-04T11:39:06;5.17;;;2.63;;
58412;SDS011;44209;52.952;6.790;2023-04-04T11:44:17;4.07;;;2.87;;
58412;SDS011;44209;52.952;6.790;2023-04-04T11:46:47;4.40;;;2.57;;
58412;SDS011;44209;52.952;6.790;2023-04-04T11:49:18;4.40;;;2.70;;
58412;SDS011;44209;52.952;6.790;2023-04-04T11:51:44;3.90;;;2.40;;
58412;SDS011;44209;52.952;6.790;2023-04-04T11:54:14;4.27;;;2.30;;
58412;SDS011;44209;52.952;6.790;2023-04-04T11:56:41;3.87;;;2.50;;
58412;SDS011;44209;52.952;6.790;2023-04-04T11:59:11;3.60;;;2.50;;
58412;SDS011;44209;52.952;6.790;2023-04-04T12:01:38;5.77;;;2.53;;
58412;SDS011;44209;52.952;6.790;2023-04-04T12:04:04;4.97;;;2.40;;
58412;SDS011;44209;52.952;6.790;2023-04-04T12:06:30;4.90;;;2.20;;
58412;SDS011;44209;52.952;6.790;2023-04-04T12:09:00;4.23;;;2.10;;
58412;SDS011;44209;52.952;6.790;2023-04-04T12:11:28;3.10;;;2.10;;
58412;SDS011;44209;52.952;6.790;2023-04-04T12:13:55;3.23;;;2.27;;
58412;SDS011;44209;52.952;6.790;2023-04-04T12:16:21;7.43;;;2.37;;
58412;SDS011;44209;52.952;6.790;2023-04-04T12:18:48;3.70;;;2.77;;
58412;SDS011;44209;52.952;6.790;2023-04-04T12:21:14;5.20;;;2.30;;
58412;SDS011;44209;52.952;6.790;2023-04-04T12:23:40;3.60;;;2.63;;
58412;SDS011;44209;52.952;6.790;2023-04-04T12:26:06;3.17;;;2.40;;
58412;SDS011;44209;52.952;6.790;2023-04-04T12:28:33;6.63;;;2.47;;
58412;SDS011;44209;52.952;6.790;2023-04-04T12:31:00;3.63;;;2.23;;
58412;SDS011;44209;52.952;6.790;2023-04-04T12:33:30;4.43;;;2.70;;
58412;SDS011;44209;52.952;6.790;2023-04-04T12:36:03;5.37;;;2.40;;
58412;SDS011;44209;52.952;6.790;2023-04-04T12:38:30;5.13;;;2.67;;
58412;SDS011;44209;52.952;6.790;2023-04-04T12:40:57;3.67;;;2.60;;
58412;SDS011;44209;52.952;6.790;2023-04-04T12:43:26;3.57;;;2.17;;
58412;SDS011;44209;52.952;6.790;2023-04-04T12:45:53;3.93;;;2.37;;
58412;SDS011;44209;52.952;6.790;2023-04-04T12:48:25;4.43;;;2.93;;
58412;SDS011;44209;52.952;6.790;2023-04-04T12:50:53;3.87;;;2.70;;
58412;SDS011;44209;52.952;6.790;2023-04-04T12:53:25;5.67;;;2.73;;
58412;SDS011;44209;52.952;6.790;2023-04-04T12:55:52;3.85;;;2.67;;
58412;SDS011;44209;52.952;6.790;2023-04-04T12:58:19;5.67;;;2.97;;
58412;SDS011;44209;52.952;6.790;2023-04-04T13:00:46;5.13;;;2.50;;
58412;SDS011;44209;52.952;6.790;2023-04-04T13:03:15;4.17;;;2.50;;
58412;SDS011;44209;52.952;6.790;2023-04-04T13:05:42;5.37;;;3.13;;
58412;SDS011;44209;52.952;6.790;2023-04-04T13:08:10;5.50;;;3.00;;
58412;SDS011;44209;52.952;6.790;2023-04-04T13:13:34;6.03;;;3.23;;
58412;SDS011;44209;52.952;6.790;2023-04-04T13:16:08;3.97;;;2.70;;
58412;SDS011;44209;52.952;6.790;2023-04-04T13:18:39;8.47;;;5.47;;
58412;SDS011;44209;52.952;6.790;2023-04-04T13:21:07;4.55;;;3.17;;
58412;SDS011;44209;52.952;6.790;2023-04-04T13:23:38;4.87;;;3.60;;
58412;SDS011;44209;52.952;6.790;2023-04-04T13:26:05;4.70;;;3.27;;
58412;SDS011;44209;52.952;6.790;2023-04-04T13:28:32;7.97;;;3.80;;
58412;SDS011;44209;52.952;6.790;2023-04-04T13:31:02;4.60;;;3.13;;
58412;SDS011;44209;52.952;6.790;2023-04-04T13:33:28;6.43;;;3.90;;
58412;SDS011;44209;52.952;6.790;2023-04-04T13:35:54;5.87;;;3.40;;
58412;SDS011;44209;52.952;6.790;2023-04-04T13:38:21;4.57;;;3.17;;
58412;SDS011;44209;52.952;6.790;2023-04-04T13:40:47;5.97;;;3.57;;
58412;SDS011;44209;52.952;6.790;2023-04-04T13:43:13;4.63;;;3.17;;
58412;SDS011;44209;52.952;6.790;2023-04-04T13:45:39;5.73;;;3.50;;
58412;SDS011;44209;52.952;6.790;2023-04-04T13:48:07;6.70;;;3.40;;
58412;SDS011;44209;52.952;6.790;2023-04-04T13:50:34;6.57;;;3.53;;
58412;SDS011;44209;52.952;6.790;2023-04-04T13:53:01;6.67;;;4.03;;
58412;SDS011;44209;52.952;6.790;2023-04-04T13:55:27;5.70;;;3.50;;
58412;SDS011;44209;52.952;6.790;2023-04-04T13:57:53;6.60;;;4.07;;
58412;SDS011;44209;52.952;6.790;2023-04-04T14:00:18;6.07;;;4.00;;
58412;SDS011;44209;52.952;6.790;2023-04-04T14:02:44;6.30;;;3.87;;
58412;SDS011;44209;52.952;6.790;2023-04-04T14:05:12;5.53;;;3.90;;
58412;SDS011;44209;52.952;6.790;2023-04-04T14:07:39;9.20;;;3.90;;
58412;SDS011;44209;52.952;6.790;2023-04-04T14:10:05;4.43;;;3.63;;
58412;SDS011;44209;52.952;6.790;2023-04-04T14:12:32;18.20;;;13.67;;
58412;SDS011;44209;52.952;6.790;2023-04-04T14:14:57;6.40;;;3.80;;
58412;SDS011;44209;52.952;6.790;2023-04-04T14:17:23;5.10;;;3.37;;
58412;SDS011;44209;52.952;6.790;2023-04-04T14:19:49;7.03;;;4.43;;
58412;SDS011;44209;52.952;6.790;2023-04-04T14:22:15;4.70;;;3.67;;
58412;SDS011;44209;52.952;6.790;2023-04-04T14:24:40;5.60;;;4.03;;
58412;SDS011;44209;52.952;6.790;2023-04-04T14:27:06;4.90;;;3.70;;
58412;SDS011;44209;52.952;6.790;2023-04-04T14:29:32;5.47;;;4.07;;
58412;SDS011;44209;52.952;6.790;2023-04-04T14:31:57;7.13;;;4.40;;
58412;SDS011;44209;52.952;6.790;2023-04-04T14:34:23;4.80;;;4.07;;
58412;SDS011;44209;52.952;6.790;2023-04-04T14:36:51;5.73;;;3.70;;
58412;SDS011;44209;52.952;6.790;2023-04-04T14:39:17;5.97;;;3.60;;
58412;SDS011;44209;52.952;6.790;2023-04-04T14:41:43;4.53;;;3.90;;
58412;SDS011;44209;52.952;6.790;2023-04-04T14:44:09;5.60;;;3.90;;
58412;SDS011;44209;52.952;6.790;2023-04-04T14:46:34;5.53;;;3.73;;
58412;SDS011;44209;52.952;6.790;2023-04-04T14:49:00;7.93;;;4.80;;
58412;SDS011;44209;52.952;6.790;2023-04-04T14:51:30;8.27;;;4.03;;
58412;SDS011;44209;52.952;6.790;2023-04-04T14:53:56;7.33;;;4.17;;
58412;SDS011;44209;52.952;6.790;2023-04-04T14:56:22;5.97;;;4.20;;
58412;SDS011;44209;52.952;6.790;2023-04-04T14:58:48;6.37;;;4.00;;
58412;SDS011;44209;52.952;6.790;2023-04-04T15:01:14;5.87;;;3.93;;
58412;SDS011;44209;52.952;6.790;2023-04-04T15:03:40;6.97;;;4.30;;
58412;SDS011;44209;52.952;6.790;2023-04-04T15:06:06;5.20;;;4.00;;
58412;SDS011;44209;52.952;6.790;2023-04-04T15:08:32;7.50;;;4.50;;
58412;SDS011;44209;52.952;6.790;2023-04-04T15:10:59;6.27;;;4.17;;